sensor_id;sensor_type;location;lat;lon;timestamp;pressure;altitude;pressure_sealevel;temperature
71640;BMP280;60912;48.968;10.124;2022-08-03T00:00:54;96814.34;;;19.32
71640;BMP280;60912;48.968;10.124;2022-08-03T00:03:20;96800.03;;;19.37
71640;BMP280;60912;48.968;10.124;2022-08-03T00:05:45;96803.84;;;19.53
71640;BMP280;60912;48.968;10.124;2022-08-03T00:08:11;96799.91;;;19.68
71640;BMP280;60912;48.968;10.124;2022-08-03T00:10:36;96804.06;;;19.79
71640;BMP280;60912;48.968;10.124;2022-08-03T00:13:03;96795.94;;;19.83
71640;BMP280;60912;48.968;10.124;2022-08-03T00:15:28;96807.19;;;19.73
71640;BMP280;60912;48.968;10.124;2022-08-03T00:17:54;96809.13;;;19.70
71640;BMP280;60912;48.968;10.124;2022-08-03T00:20:20;96805.38;;;19.66
71640;BMP280;60912;48.968;10.124;2022-08-03T00:22:46;96801.06;;;19.53
71640;BMP280;60912;48.968;10.124;2022-08-03T00:25:12;96798.63;;;19.48
71640;BMP280;60912;48.968;10.124;2022-08-03T00:27:37;96803.25;;;19.43
71640;BMP280;60912;48.968;10.124;2022-08-03T00:30:03;96794.72;;;19.41
71640;BMP280;60912;48.968;10.124;2022-08-03T00:32:29;96797.88;;;19.47
71640;BMP280;60912;48.968;10.124;2022-08-03T00:34:54;96794.03;;;19.52
71640;BMP280;60912;48.968;10.124;2022-08-03T00:37:19;96798.41;;;19.55
71640;BMP280;60912;48.968;10.124;2022-08-03T00:39:45;96790.97;;;19.48
71640;BMP280;60912;48.968;10.124;2022-08-03T00:42:12;96791.16;;;19.29
71640;BMP280;60912;48.968;10.124;2022-08-03T00:44:38;96791.44;;;19.12
71640;BMP280;60912;48.968;10.124;2022-08-03T00:47:05;96792.56;;;18.97
71640;BMP280;60912;48.968;10.124;2022-08-03T00:49:30;96787.03;;;18.88
71640;BMP280;60912;48.968;10.124;2022-08-03T00:51:56;96786.66;;;18.82
71640;BMP280;60912;48.968;10.124;2022-08-03T00:54:22;96783.72;;;18.80
71640;BMP280;60912;48.968;10.124;2022-08-03T00:56:48;96790.28;;;18.84
71640;BMP280;60912;48.968;10.124;2022-08-03T00:59:15;96799.31;;;18.73
71640;BMP280;60912;48.968;10.124;2022-08-03T01:01:40;96795.94;;;18.53
71640;BMP280;60912;48.968;10.124;2022-08-03T01:04:06;96796.09;;;18.46
71640;BMP280;60912;48.968;10.124;2022-08-03T01:07:09;96798.03;;;18.43
71640;BMP280;60912;48.968;10.124;2022-08-03T01:12:37;96791.94;;;18.56
71640;BMP280;60912;48.968;10.124;2022-08-03T01:15:14;96784.91;;;18.55
71640;BMP280;60912;48.968;10.124;2022-08-03T01:17:56;96790.78;;;18.50
71640;BMP280;60912;48.968;10.124;2022-08-03T01:20:26;96782.34;;;18.59
71640;BMP280;60912;48.968;10.124;2022-08-03T01:30:48;96780.44;;;18.62
71640;BMP280;60912;48.968;10.124;2022-08-03T01:35:57;96789.16;;;18.56
71640;BMP280;60912;48.968;10.124;2022-08-03T01:38:26;96787.09;;;18.57
71640;BMP280;60912;48.968;10.124;2022-08-03T01:40:55;96784.78;;;18.53
71640;BMP280;60912;48.968;10.124;2022-08-03T01:43:26;96779.09;;;18.42
71640;BMP280;60912;48.968;10.124;2022-08-03T01:45:56;96773.19;;;18.47
71640;BMP280;60912;48.968;10.124;2022-08-03T01:48:22;96776.78;;;18.59
71640;BMP280;60912;48.968;10.124;2022-08-03T01:50:50;96771.75;;;18.67
71640;BMP280;60912;48.968;10.124;2022-08-03T01:53:17;96772.00;;;18.72
71640;BMP280;60912;48.968;10.124;2022-08-03T01:55:48;96762.91;;;18.71
71640;BMP280;60912;48.968;10.124;2022-08-03T01:58:17;96768.56;;;18.61
71640;BMP280;60912;48.968;10.124;2022-08-03T02:00:45;96770.09;;;18.53
71640;BMP280;60912;48.968;10.124;2022-08-03T02:03:12;96771.31;;;18.40
71640;BMP280;60912;48.968;10.124;2022-08-03T02:05:38;96764.34;;;18.30
71640;BMP280;60912;48.968;10.124;2022-08-03T02:08:07;96763.00;;;18.31
71640;BMP280;60912;48.968;10.124;2022-08-03T02:10:34;96760.13;;;18.40
71640;BMP280;60912;48.968;10.124;2022-08-03T02:13:00;96762.88;;;18.50
71640;BMP280;60912;48.968;10.124;2022-08-03T02:15:28;96760.44;;;18.44
71640;BMP280;60912;48.968;10.124;2022-08-03T02:17:56;96765.88;;;18.42
71640;BMP280;60912;48.968;10.124;2022-08-03T02:20:22;96765.91;;;18.33
71640;BMP280;60912;48.968;10.124;2022-08-03T02:22:48;96759.75;;;18.34
71640;BMP280;60912;48.968;10.124;2022-08-03T02:25:14;96754.72;;;18.42
71640;BMP280;60912;48.968;10.124;2022-08-03T02:28:03;96755.34;;;18.31
71640;BMP280;60912;48.968;10.124;2022-08-03T02:30:35;96760.84;;;18.20
71640;BMP280;60912;48.968;10.124;2022-08-03T02:33:07;96757.06;;;18.15
71640;BMP280;60912;48.968;10.124;2022-08-03T02:35:35;96763.94;;;18.14
71640;BMP280;60912;48.968;10.124;2022-08-03T02:38:03;96761.78;;;18.03
71640;BMP280;60912;48.968;10.124;2022-08-03T02:40:30;96757.44;;;17.90
71640;BMP280;60912;48.968;10.124;2022-08-03T02:42:59;96760.38;;;17.83
71640;BMP280;60912;48.968;10.124;2022-08-03T02:45:27;96758.78;;;17.80
71640;BMP280;60912;48.968;10.124;2022-08-03T02:47:55;96756.25;;;17.84
71640;BMP280;60912;48.968;10.124;2022-08-03T02:50:23;96755.63;;;17.95
71640;BMP280;60912;48.968;10.124;2022-08-03T02:52:51;96754.19;;;17.94
71640;BMP280;60912;48.968;10.124;2022-08-03T02:55:19;96747.88;;;17.84
71640;BMP280;60912;48.968;10.124;2022-08-03T02:57:45;96753.94;;;17.71
71640;BMP280;60912;48.968;10.124;2022-08-03T03:00:12;96751.03;;;17.68
71640;BMP280;60912;48.968;10.124;2022-08-03T03:02:39;96744.75;;;17.68
71640;BMP280;60912;48.968;10.124;2022-08-03T03:05:05;96750.75;;;17.64
71640;BMP280;60912;48.968;10.124;2022-08-03T03:07:33;96751.47;;;17.65
71640;BMP280;60912;48.968;10.124;2022-08-03T03:09:59;96746.91;;;17.69
71640;BMP280;60912;48.968;10.124;2022-08-03T03:12:25;96749.69;;;17.69
71640;BMP280;60912;48.968;10.124;2022-08-03T03:14:51;96741.31;;;17.69
71640;BMP280;60912;48.968;10.124;2022-08-03T03:17:16;96745.16;;;17.64
71640;BMP280;60912;48.968;10.124;2022-08-03T03:19:43;96745.44;;;17.68
71640;BMP280;60912;48.968;10.124;2022-08-03T03:22:09;96744.56;;;17.76
71640;BMP280;60912;48.968;10.124;2022-08-03T03:24:35;96744.28;;;17.72
71640;BMP280;60912;48.968;10.124;2022-08-03T03:27:02;96753.66;;;17.76
71640;BMP280;60912;48.968;10.124;2022-08-03T03:29:28;96751.03;;;17.78
71640;BMP280;60912;48.968;10.124;2022-08-03T03:31:53;96751.31;;;17.73
71640;BMP280;60912;48.968;10.124;2022-08-03T03:34:21;96752.38;;;17.67
71640;BMP280;60912;48.968;10.124;2022-08-03T03:36:47;96751.31;;;17.73
71640;BMP280;60912;48.968;10.124;2022-08-03T03:39:12;96752.38;;;17.67
71640;BMP280;60912;48.968;10.124;2022-08-03T03:41:39;96755.16;;;17.67
71640;BMP280;60912;48.968;10.124;2022-08-03T03:44:04;96757.06;;;17.55
71640;BMP280;60912;48.968;10.124;2022-08-03T03:46:30;96747.69;;;17.51
71640;BMP280;60912;48.968;10.124;2022-08-03T03:48:56;96751.38;;;17.53
71640;BMP280;60912;48.968;10.124;2022-08-03T03:51:21;96762.50;;;17.53
71640;BMP280;60912;48.968;10.124;2022-08-03T03:54:13;96753.09;;;17.58
71640;BMP280;60912;48.968;10.124;2022-08-03T03:56:38;96746.06;;;17.67
71640;BMP280;60912;48.968;10.124;2022-08-03T03:59:03;96751.91;;;17.61
71640;BMP280;60912;48.968;10.124;2022-08-03T04:01:29;96749.03;;;17.40
71640;BMP280;60912;48.968;10.124;2022-08-03T04:03:55;96757.53;;;17.23
71640;BMP280;60912;48.968;10.124;2022-08-03T04:06:20;96750.81;;;17.16
71640;BMP280;60912;48.968;10.124;2022-08-03T04:09:05;96749.03;;;17.21
71640;BMP280;60912;48.968;10.124;2022-08-03T04:11:57;96747.56;;;17.39
71640;BMP280;60912;48.968;10.124;2022-08-03T04:14:33;96751.69;;;17.38
71640;BMP280;60912;48.968;10.124;2022-08-03T04:17:05;96748.28;;;17.59
71640;BMP280;60912;48.968;10.124;2022-08-03T04:19:35;96760.13;;;17.59
71640;BMP280;60912;48.968;10.124;2022-08-03T04:22:06;96757.06;;;18.15
71640;BMP280;60912;48.968;10.124;2022-08-03T04:24:38;96750.47;;;19.49
71640;BMP280;60912;48.968;10.124;2022-08-03T04:27:06;96759.78;;;20.56
71640;BMP280;60912;48.968;10.124;2022-08-03T04:29:34;96757.91;;;21.60
71640;BMP280;60912;48.968;10.124;2022-08-03T04:32:02;96745.56;;;22.60
71640;BMP280;60912;48.968;10.124;2022-08-03T04:34:30;96752.88;;;23.55
71640;BMP280;60912;48.968;10.124;2022-08-03T04:36:58;96748.63;;;24.50
71640;BMP280;60912;48.968;10.124;2022-08-03T04:39:25;96755.53;;;25.17
71640;BMP280;60912;48.968;10.124;2022-08-03T04:41:57;96753.31;;;25.90
71640;BMP280;60912;48.968;10.124;2022-08-03T04:44:24;96759.44;;;26.87
71640;BMP280;60912;48.968;10.124;2022-08-03T04:46:51;96758.00;;;27.57
71640;BMP280;60912;48.968;10.124;2022-08-03T04:49:19;96753.44;;;28.51
71640;BMP280;60912;48.968;10.124;2022-08-03T04:51:45;96754.34;;;29.55
71640;BMP280;60912;48.968;10.124;2022-08-03T04:54:13;96750.16;;;30.35
71640;BMP280;60912;48.968;10.124;2022-08-03T04:56:41;96749.25;;;30.66
71640;BMP280;60912;48.968;10.124;2022-08-03T04:59:07;96749.19;;;31.12
71640;BMP280;60912;48.968;10.124;2022-08-03T05:01:32;96751.16;;;31.58
71640;BMP280;60912;48.968;10.124;2022-08-03T05:03:58;96750.44;;;32.31
71640;BMP280;60912;48.968;10.124;2022-08-03T05:06:24;96744.31;;;32.71
71640;BMP280;60912;48.968;10.124;2022-08-03T05:08:49;96753.34;;;33.86
71640;BMP280;60912;48.968;10.124;2022-08-03T05:11:15;96754.81;;;34.39
71640;BMP280;60912;48.968;10.124;2022-08-03T05:13:41;96743.72;;;35.48
71640;BMP280;60912;48.968;10.124;2022-08-03T05:16:07;96754.44;;;35.56
71640;BMP280;60912;48.968;10.124;2022-08-03T05:18:32;96754.44;;;35.47
71640;BMP280;60912;48.968;10.124;2022-08-03T05:20:58;96756.84;;;36.14
71640;BMP280;60912;48.968;10.124;2022-08-03T05:23:23;96765.84;;;37.13
71640;BMP280;60912;48.968;10.124;2022-08-03T05:25:48;96762.66;;;37.86
71640;BMP280;60912;48.968;10.124;2022-08-03T05:28:14;96757.53;;;38.34
71640;BMP280;60912;48.968;10.124;2022-08-03T05:30:39;96757.72;;;38.62
71640;BMP280;60912;48.968;10.124;2022-08-03T05:33:05;96755.16;;;39.18
71640;BMP280;60912;48.968;10.124;2022-08-03T05:35:31;96758.81;;;39.47
71640;BMP280;60912;48.968;10.124;2022-08-03T05:37:57;96756.03;;;39.43
71640;BMP280;60912;48.968;10.124;2022-08-03T05:40:22;96763.94;;;39.11
71640;BMP280;60912;48.968;10.124;2022-08-03T05:42:47;96764.66;;;39.12
71640;BMP280;60912;48.968;10.124;2022-08-03T05:45:14;96763.91;;;38.79
71640;BMP280;60912;48.968;10.124;2022-08-03T05:47:41;96765.91;;;38.48
71640;BMP280;60912;48.968;10.124;2022-08-03T05:50:09;96762.56;;;38.35
71640;BMP280;60912;48.968;10.124;2022-08-03T05:52:34;96761.69;;;38.02
71640;BMP280;60912;48.968;10.124;2022-08-03T05:55:00;96763.66;;;37.69
71640;BMP280;60912;48.968;10.124;2022-08-03T05:57:25;96777.47;;;37.05
71640;BMP280;60912;48.968;10.124;2022-08-03T05:59:51;96770.97;;;36.42
71640;BMP280;60912;48.968;10.124;2022-08-03T06:02:16;96765.28;;;36.36
71640;BMP280;60912;48.968;10.124;2022-08-03T06:04:41;96772.56;;;36.23
71640;BMP280;60912;48.968;10.124;2022-08-03T06:07:07;96768.13;;;35.33
71640;BMP280;60912;48.968;10.124;2022-08-03T06:09:32;96768.84;;;35.37
71640;BMP280;60912;48.968;10.124;2022-08-03T06:11:58;96762.44;;;35.29
71640;BMP280;60912;48.968;10.124;2022-08-03T06:14:23;96769.09;;;34.21
71640;BMP280;60912;48.968;10.124;2022-08-03T06:16:49;96773.41;;;33.92
71640;BMP280;60912;48.968;10.124;2022-08-03T06:19:14;96770.94;;;33.02
71640;BMP280;60912;48.968;10.124;2022-08-03T06:21:39;96768.84;;;33.12
71640;BMP280;60912;48.968;10.124;2022-08-03T06:24:05;96770.41;;;33.45
71640;BMP280;60912;48.968;10.124;2022-08-03T06:26:31;96769.06;;;33.85
71640;BMP280;60912;48.968;10.124;2022-08-03T06:28:56;96766.25;;;33.89
71640;BMP280;60912;48.968;10.124;2022-08-03T06:31:23;96769.00;;;33.56
71640;BMP280;60912;48.968;10.124;2022-08-03T06:33:50;96775.13;;;32.88
71640;BMP280;60912;48.968;10.124;2022-08-03T06:36:16;96768.78;;;33.02
71640;BMP280;60912;48.968;10.124;2022-08-03T06:38:41;96774.50;;;33.06
71640;BMP280;60912;48.968;10.124;2022-08-03T06:41:06;96765.31;;;33.18
71640;BMP280;60912;48.968;10.124;2022-08-03T06:43:32;96777.31;;;32.96
71640;BMP280;60912;48.968;10.124;2022-08-03T06:46:01;96768.78;;;33.08
71640;BMP280;60912;48.968;10.124;2022-08-03T06:48:27;96770.34;;;33.25
71640;BMP280;60912;48.968;10.124;2022-08-03T06:50:53;96770.25;;;33.13
71640;BMP280;60912;48.968;10.124;2022-08-03T06:53:19;96762.53;;;33.42
71640;BMP280;60912;48.968;10.124;2022-08-03T06:55:44;96776.88;;;33.54
71640;BMP280;60912;48.968;10.124;2022-08-03T06:58:09;96764.06;;;33.97
71640;BMP280;60912;48.968;10.124;2022-08-03T07:00:35;96767.66;;;33.90
71640;BMP280;60912;48.968;10.124;2022-08-03T07:03:00;96769.81;;;33.93
71640;BMP280;60912;48.968;10.124;2022-08-03T07:05:26;96779.75;;;33.64
71640;BMP280;60912;48.968;10.124;2022-08-03T07:07:55;96771.97;;;33.93
71640;BMP280;60912;48.968;10.124;2022-08-03T07:10:22;96777.69;;;34.23
71640;BMP280;60912;48.968;10.124;2022-08-03T07:12:47;96771.97;;;33.99
71640;BMP280;60912;48.968;10.124;2022-08-03T07:15:12;96779.13;;;34.22
71640;BMP280;60912;48.968;10.124;2022-08-03T07:17:38;96771.94;;;34.57
71640;BMP280;60912;48.968;10.124;2022-08-03T07:20:05;96773.31;;;34.84
71640;BMP280;60912;48.968;10.124;2022-08-03T07:22:34;96771.91;;;34.85
71640;BMP280;60912;48.968;10.124;2022-08-03T07:24:59;96767.59;;;34.84
71640;BMP280;60912;48.968;10.124;2022-08-03T07:27:25;96767.63;;;34.72
71640;BMP280;60912;48.968;10.124;2022-08-03T07:29:52;96768.28;;;35.01
71640;BMP280;60912;48.968;10.124;2022-08-03T07:32:18;96765.91;;;35.47
71640;BMP280;60912;48.968;10.124;2022-08-03T07:34:43;96764.63;;;35.18
71640;BMP280;60912;48.968;10.124;2022-08-03T07:37:08;96762.34;;;35.49
71640;BMP280;60912;48.968;10.124;2022-08-03T07:39:34;96771.47;;;35.80
71640;BMP280;60912;48.968;10.124;2022-08-03T07:42:01;96765.63;;;35.96
71640;BMP280;60912;48.968;10.124;2022-08-03T07:44:26;96761.72;;;36.33
71640;BMP280;60912;48.968;10.124;2022-08-03T07:46:51;96760.19;;;36.43
71640;BMP280;60912;48.968;10.124;2022-08-03T07:49:17;96762.97;;;35.66
71640;BMP280;60912;48.968;10.124;2022-08-03T07:51:42;96765.25;;;35.43
71640;BMP280;60912;48.968;10.124;2022-08-03T07:54:08;96762.78;;;35.90
71640;BMP280;60912;48.968;10.124;2022-08-03T07:56:35;96764.94;;;35.91
71640;BMP280;60912;48.968;10.124;2022-08-03T07:59:00;96763.84;;;35.34
71640;BMP280;60912;48.968;10.124;2022-08-03T08:01:27;96761.38;;;35.87
71640;BMP280;60912;48.968;10.124;2022-08-03T08:03:53;96762.75;;;35.96
71640;BMP280;60912;48.968;10.124;2022-08-03T08:06:19;96754.00;;;36.12
71640;BMP280;60912;48.968;10.124;2022-08-03T08:08:44;96757.16;;;35.74
71640;BMP280;60912;48.968;10.124;2022-08-03T08:11:10;96757.13;;;35.82
71640;BMP280;60912;48.968;10.124;2022-08-03T08:13:35;96749.03;;;36.08
71640;BMP280;60912;48.968;10.124;2022-08-03T08:16:04;96757.75;;;35.94
71640;BMP280;60912;48.968;10.124;2022-08-03T08:18:30;96759.81;;;36.06
71640;BMP280;60912;48.968;10.124;2022-08-03T08:20:56;96750.69;;;35.77
71640;BMP280;60912;48.968;10.124;2022-08-03T08:23:21;96746.66;;;35.32
71640;BMP280;60912;48.968;10.124;2022-08-03T08:25:47;96752.13;;;35.76
71640;BMP280;60912;48.968;10.124;2022-08-03T08:28:13;96748.56;;;35.72
71640;BMP280;60912;48.968;10.124;2022-08-03T08:30:38;96750.69;;;35.79
71640;BMP280;60912;48.968;10.124;2022-08-03T08:33:03;96752.78;;;35.87
71640;BMP280;60912;48.968;10.124;2022-08-03T08:35:30;96749.69;;;36.15
71640;BMP280;60912;48.968;10.124;2022-08-03T08:37:55;96743.59;;;36.53
71640;BMP280;60912;48.968;10.124;2022-08-03T08:40:21;96747.59;;;36.80
71640;BMP280;60912;48.968;10.124;2022-08-03T08:42:48;96749.03;;;36.79
71640;BMP280;60912;48.968;10.124;2022-08-03T08:45:14;96743.81;;;36.29
71640;BMP280;60912;48.968;10.124;2022-08-03T08:47:43;96752.63;;;36.07
71640;BMP280;60912;48.968;10.124;2022-08-03T08:50:09;96740.88;;;36.39
71640;BMP280;60912;48.968;10.124;2022-08-03T08:52:36;96746.91;;;36.05
71640;BMP280;60912;48.968;10.124;2022-08-03T08:55:05;96751.00;;;36.28
71640;BMP280;60912;48.968;10.124;2022-08-03T08:57:43;96750.63;;;36.66
71640;BMP280;60912;48.968;10.124;2022-08-03T09:00:10;96740.38;;;36.83
71640;BMP280;60912;48.968;10.124;2022-08-03T09:02:38;96742.03;;;36.60
71640;BMP280;60912;48.968;10.124;2022-08-03T09:05:09;96747.41;;;36.96
71640;BMP280;60912;48.968;10.124;2022-08-03T09:07:36;96744.00;;;36.80
71640;BMP280;60912;48.968;10.124;2022-08-03T09:10:02;96735.66;;;37.16
71640;BMP280;60912;48.968;10.124;2022-08-03T09:12:27;96746.31;;;37.24
71640;BMP280;60912;48.968;10.124;2022-08-03T09:14:54;96749.75;;;37.35
71640;BMP280;60912;48.968;10.124;2022-08-03T09:17:19;96751.69;;;36.95
71640;BMP280;60912;48.968;10.124;2022-08-03T09:20:04;96760.03;;;35.78
71640;BMP280;60912;48.968;10.124;2022-08-03T09:22:31;96752.94;;;35.61
71640;BMP280;60912;48.968;10.124;2022-08-03T09:24:58;96749.72;;;34.88
71640;BMP280;60912;48.968;10.124;2022-08-03T09:27:24;96742.44;;;35.19
71640;BMP280;60912;48.968;10.124;2022-08-03T09:29:51;96744.97;;;35.73
71640;BMP280;60912;48.968;10.124;2022-08-03T09:32:22;96748.84;;;35.27
71640;BMP280;60912;48.968;10.124;2022-08-03T09:34:50;96752.91;;;35.71
71640;BMP280;60912;48.968;10.124;2022-08-03T09:37:18;96743.72;;;36.37
71640;BMP280;60912;48.968;10.124;2022-08-03T09:39:44;96737.84;;;36.53
71640;BMP280;60912;48.968;10.124;2022-08-03T09:42:15;96751.63;;;35.43
71640;BMP280;60912;48.968;10.124;2022-08-03T09:44:46;96741.59;;;35.42
71640;BMP280;60912;48.968;10.124;2022-08-03T09:47:36;96745.50;;;35.98
71640;BMP280;60912;48.968;10.124;2022-08-03T09:50:07;96742.25;;;36.44
71640;BMP280;60912;48.968;10.124;2022-08-03T09:52:35;96736.63;;;36.32
71640;BMP280;60912;48.968;10.124;2022-08-03T09:55:11;96734.66;;;36.10
71640;BMP280;60912;48.968;10.124;2022-08-03T09:57:37;96729.41;;;36.33
71640;BMP280;60912;48.968;10.124;2022-08-03T10:00:12;96740.66;;;35.76
71640;BMP280;60912;48.968;10.124;2022-08-03T10:02:43;96739.94;;;35.76
71640;BMP280;60912;48.968;10.124;2022-08-03T10:05:11;96740.03;;;35.66
71640;BMP280;60912;48.968;10.124;2022-08-03T10:07:47;96739.47;;;36.32
71640;BMP280;60912;48.968;10.124;2022-08-03T10:10:14;96726.50;;;36.41
71640;BMP280;60912;48.968;10.124;2022-08-03T10:12:41;96726.00;;;36.14
71640;BMP280;60912;48.968;10.124;2022-08-03T10:15:08;96735.56;;;35.83
71640;BMP280;60912;48.968;10.124;2022-08-03T10:17:35;96720.91;;;36.21
71640;BMP280;60912;48.968;10.124;2022-08-03T10:20:00;96726.28;;;36.59
71640;BMP280;60912;48.968;10.124;2022-08-03T10:22:33;96724.72;;;36.70
71640;BMP280;60912;48.968;10.124;2022-08-03T10:27:26;96715.75;;;36.98
71640;BMP280;60912;48.968;10.124;2022-08-03T10:29:57;96729.16;;;36.59
71640;BMP280;60912;48.968;10.124;2022-08-03T10:32:47;96723.25;;;36.73
71640;BMP280;60912;48.968;10.124;2022-08-03T10:35:15;96720.97;;;37.37
71640;BMP280;60912;48.968;10.124;2022-08-03T10:37:51;96712.34;;;37.41
71640;BMP280;60912;48.968;10.124;2022-08-03T10:40:18;96703.19;;;37.71
71640;BMP280;60912;48.968;10.124;2022-08-03T10:42:48;96709.34;;;37.47
71640;BMP280;60912;48.968;10.124;2022-08-03T10:45:22;96699.25;;;37.48
71640;BMP280;60912;48.968;10.124;2022-08-03T10:47:50;96698.19;;;37.25
71640;BMP280;60912;48.968;10.124;2022-08-03T10:50:17;96704.03;;;36.58
71640;BMP280;60912;48.968;10.124;2022-08-03T10:53:12;96698.75;;;36.11
71640;BMP280;60912;48.968;10.124;2022-08-03T10:55:45;96700.41;;;35.90
71640;BMP280;60912;48.968;10.124;2022-08-03T11:01:02;96692.78;;;36.38
71640;BMP280;60912;48.968;10.124;2022-08-03T11:03:28;96692.47;;;36.66
71640;BMP280;60912;48.968;10.124;2022-08-03T11:06:13;96687.50;;;35.85
71640;BMP280;60912;48.968;10.124;2022-08-03T11:08:39;96689.88;;;36.40
71640;BMP280;60912;48.968;10.124;2022-08-03T11:16:30;96685.44;;;36.53
71640;BMP280;60912;48.968;10.124;2022-08-03T11:19:00;96686.25;;;37.02
71640;BMP280;60912;48.968;10.124;2022-08-03T11:27:28;96678.63;;;36.82
71640;BMP280;60912;48.968;10.124;2022-08-03T11:30:10;96681.81;;;36.56
71640;BMP280;60912;48.968;10.124;2022-08-03T11:35:10;96668.69;;;36.71
71640;BMP280;60912;48.968;10.124;2022-08-03T11:40:41;96668.97;;;35.76
71640;BMP280;60912;48.968;10.124;2022-08-03T11:45:56;96667.88;;;36.16
71640;BMP280;60912;48.968;10.124;2022-08-03T11:48:22;96676.94;;;36.43
71640;BMP280;60912;48.968;10.124;2022-08-03T11:50:48;96674.03;;;36.45
71640;BMP280;60912;48.968;10.124;2022-08-03T11:53:15;96670.38;;;36.52
71640;BMP280;60912;48.968;10.124;2022-08-03T11:55:46;96667.50;;;36.52
71640;BMP280;60912;48.968;10.124;2022-08-03T11:58:21;96667.56;;;36.48
71640;BMP280;60912;48.968;10.124;2022-08-03T12:00:48;96662.88;;;36.16
71640;BMP280;60912;48.968;10.124;2022-08-03T12:03:16;96661.31;;;36.27
71640;BMP280;60912;48.968;10.124;2022-08-03T12:05:43;96659.84;;;36.30
71640;BMP280;60912;48.968;10.124;2022-08-03T12:08:10;96663.38;;;36.35
71640;BMP280;60912;48.968;10.124;2022-08-03T12:10:36;96648.16;;;36.47
71640;BMP280;60912;48.968;10.124;2022-08-03T12:13:03;96655.72;;;36.13
71640;BMP280;60912;48.968;10.124;2022-08-03T12:15:31;96658.72;;;36.01
71640;BMP280;60912;48.968;10.124;2022-08-03T12:18:01;96650.16;;;36.60
71640;BMP280;60912;48.968;10.124;2022-08-03T12:20:29;96649.06;;;36.92
71640;BMP280;60912;48.968;10.124;2022-08-03T12:23:01;96657.72;;;36.29
71640;BMP280;60912;48.968;10.124;2022-08-03T12:25:27;96650.22;;;35.85
71640;BMP280;60912;48.968;10.124;2022-08-03T12:28:05;96657.91;;;36.11
71640;BMP280;60912;48.968;10.124;2022-08-03T12:30:34;96647.59;;;36.34
71640;BMP280;60912;48.968;10.124;2022-08-03T12:33:14;96653.56;;;36.75
71640;BMP280;60912;48.968;10.124;2022-08-03T12:35:39;96651.44;;;36.73
71640;BMP280;60912;48.968;10.124;2022-08-03T12:38:05;96637.34;;;36.53
71640;BMP280;60912;48.968;10.124;2022-08-03T12:40:30;96639.06;;;36.26
71640;BMP280;60912;48.968;10.124;2022-08-03T12:42:56;96641.88;;;36.34
71640;BMP280;60912;48.968;10.124;2022-08-03T12:45:25;96643.28;;;36.33
71640;BMP280;60912;48.968;10.124;2022-08-03T12:47:59;96642.06;;;36.18
71640;BMP280;60912;48.968;10.124;2022-08-03T12:50:25;96636.75;;;36.43
71640;BMP280;60912;48.968;10.124;2022-08-03T12:52:51;96640.22;;;36.53
71640;BMP280;60912;48.968;10.124;2022-08-03T12:55:20;96633.69;;;35.94
71640;BMP280;60912;48.968;10.124;2022-08-03T12:57:46;96641.16;;;35.57
71640;BMP280;60912;48.968;10.124;2022-08-03T13:00:14;96631.19;;;35.45
71640;BMP280;60912;48.968;10.124;2022-08-03T13:02:39;96625.31;;;35.68
71640;BMP280;60912;48.968;10.124;2022-08-03T13:05:12;96623.69;;;35.89
71640;BMP280;60912;48.968;10.124;2022-08-03T13:07:42;96633.94;;;35.64
71640;BMP280;60912;48.968;10.124;2022-08-03T13:10:09;96630.84;;;35.90
71640;BMP280;60912;48.968;10.124;2022-08-03T13:12:45;96633.50;;;36.12
71640;BMP280;60912;48.968;10.124;2022-08-03T13:15:11;96640.66;;;36.13
71640;BMP280;60912;48.968;10.124;2022-08-03T13:17:37;96637.66;;;36.23
71640;BMP280;60912;48.968;10.124;2022-08-03T13:20:03;96631.00;;;36.43
71640;BMP280;60912;48.968;10.124;2022-08-03T13:22:29;96629.31;;;35.99
71640;BMP280;60912;48.968;10.124;2022-08-03T13:24:55;96624.84;;;36.14
71640;BMP280;60912;48.968;10.124;2022-08-03T13:27:22;96629.00;;;36.29
71640;BMP280;60912;48.968;10.124;2022-08-03T13:29:48;96619.34;;;35.94
71640;BMP280;60912;48.968;10.124;2022-08-03T13:32:14;96630.00;;;35.10
71640;BMP280;60912;48.968;10.124;2022-08-03T13:34:40;96622.72;;;35.31
71640;BMP280;60912;48.968;10.124;2022-08-03T13:37:05;96613.97;;;35.52
71640;BMP280;60912;48.968;10.124;2022-08-03T13:39:33;96624.09;;;35.40
71640;BMP280;60912;48.968;10.124;2022-08-03T13:41:59;96621.78;;;35.59
71640;BMP280;60912;48.968;10.124;2022-08-03T13:44:25;96620.66;;;35.18
71640;BMP280;60912;48.968;10.124;2022-08-03T13:46:50;96611.84;;;35.48
71640;BMP280;60912;48.968;10.124;2022-08-03T13:49:16;96618.75;;;35.81
71640;BMP280;60912;48.968;10.124;2022-08-03T13:51:41;96603.31;;;36.17
71640;BMP280;60912;48.968;10.124;2022-08-03T13:54:07;96606.66;;;35.69
71640;BMP280;60912;48.968;10.124;2022-08-03T13:56:32;96607.63;;;35.33
71640;BMP280;60912;48.968;10.124;2022-08-03T13:58:58;96599.56;;;35.60
71640;BMP280;60912;48.968;10.124;2022-08-03T14:01:24;96602.06;;;35.13
71640;BMP280;60912;48.968;10.124;2022-08-03T14:03:50;96598.28;;;35.42
71640;BMP280;60912;48.968;10.124;2022-08-03T14:06:20;96599.63;;;35.50
71640;BMP280;60912;48.968;10.124;2022-08-03T14:08:46;96589.56;;;35.57
71640;BMP280;60912;48.968;10.124;2022-08-03T14:11:15;96591.31;;;35.17
71640;BMP280;60912;48.968;10.124;2022-08-03T14:13:41;96584.59;;;35.49
71640;BMP280;60912;48.968;10.124;2022-08-03T14:16:08;96585.19;;;35.66
71640;BMP280;60912;48.968;10.124;2022-08-03T14:18:33;96595.09;;;35.79
71640;BMP280;60912;48.968;10.124;2022-08-03T14:21:01;96586.41;;;35.87
71640;BMP280;60912;48.968;10.124;2022-08-03T14:23:27;96587.38;;;35.59
71640;BMP280;60912;48.968;10.124;2022-08-03T14:25:52;96586.81;;;35.42
71640;BMP280;60912;48.968;10.124;2022-08-03T14:28:19;96587.47;;;35.47
71640;BMP280;60912;48.968;10.124;2022-08-03T14:30:46;96576.69;;;35.56
71640;BMP280;60912;48.968;10.124;2022-08-03T14:33:12;96584.00;;;35.36
71640;BMP280;60912;48.968;10.124;2022-08-03T14:35:38;96586.06;;;35.46
71640;BMP280;60912;48.968;10.124;2022-08-03T14:38:04;96585.19;;;35.68